createdAt,value
2023-04-21T00:02:46.738Z,7.50
2023-04-21T00:07:48.747Z,11.00
2023-04-21T00:12:51.772Z,8.00
2023-04-21T00:17:53.682Z,7.00
2023-04-21T00:22:56.864Z,8.00
2023-04-21T00:27:58.727Z,7.50
2023-04-21T00:33:00.609Z,6.00
2023-04-21T00:38:04.224Z,3.00
2023-04-21T00:43:07.477Z,6.75
2023-04-21T00:48:09.486Z,7.75
2023-04-21T00:53:12.979Z,4.00
2023-04-21T00:58:14.779Z,6.00
2023-04-21T01:03:17.276Z,4.75
2023-04-21T01:08:19.334Z,5.50
2023-04-21T01:13:23.565Z,4.25
2023-04-21T01:18:27.115Z,3.75
2023-04-21T01:23:28.962Z,3.00
2023-04-21T01:28:30.819Z,3.25
2023-04-21T01:33:32.789Z,2.00
2023-04-21T01:38:37.438Z,3.25
2023-04-21T01:43:39.433Z,2.00
2023-04-21T01:48:41.273Z,1.00
2023-04-21T01:53:43.141Z,1.00
2023-04-21T01:58:45.011Z,1.25
2023-04-21T02:03:46.994Z,1.50
2023-04-21T02:08:49.429Z,1.00
2023-04-21T02:13:53.669Z,1.00
2023-04-21T02:18:59.875Z,1.75
2023-04-21T02:24:02.306Z,2.50
2023-04-21T02:29:04.185Z,2.75
2023-04-21T02:34:06.041Z,2.00
2023-04-21T02:39:07.858Z,2.00
2023-04-21T02:44:09.625Z,1.00
2023-04-21T02:49:11.449Z,1.00
2023-04-21T02:54:13.203Z,2.25
2023-04-21T02:59:16.733Z,3.00
2023-04-21T03:04:19.859Z,1.50
2023-04-21T03:09:22.026Z,2.00
2023-04-21T03:14:23.764Z,3.25
2023-04-21T03:19:25.745Z,3.00
2023-04-21T03:24:28.028Z,3.50
2023-04-21T03:29:29.865Z,2.25
2023-04-21T03:34:31.742Z,0.00
2023-04-21T03:39:36.168Z,1.00
2023-04-21T03:44:38.037Z,1.00
2023-04-21T03:49:39.780Z,1.00
2023-04-21T03:54:41.529Z,1.00
2023-04-21T03:59:43.683Z,1.00
2023-04-21T04:04:46.186Z,1.25
2023-04-21T04:09:48.186Z,4.50
2023-04-21T04:14:50.095Z,3.00
2023-04-21T04:19:52.001Z,1.25
2023-04-21T04:24:53.824Z,3.00
2023-04-21T04:29:55.642Z,2.00
2023-04-21T04:34:58.925Z,2.00
2023-04-21T04:40:00.865Z,1.00
2023-04-21T04:45:03.269Z,2.25
2023-04-21T04:50:06.578Z,2.00
2023-04-21T04:55:08.451Z,5.50
2023-04-21T05:00:11.526Z,3.00
2023-04-21T05:05:13.673Z,3.50
2023-04-21T05:10:15.711Z,2.00
2023-04-21T05:15:18.394Z,1.00
2023-04-21T05:20:20.323Z,1.50
2023-04-21T05:25:22.179Z,1.50
2023-04-21T05:30:24.115Z,1.00
2023-04-21T05:35:26.076Z,1.00
2023-04-21T05:40:28.118Z,5.50
2023-04-21T05:45:29.929Z,2.75
2023-04-21T05:50:34.131Z,1.00
2023-04-21T05:55:36.726Z,1.00
2023-04-21T06:00:38.521Z,1.00
2023-04-21T06:05:40.653Z,7.75
2023-04-21T06:10:42.680Z,10.50
2023-04-21T06:15:44.622Z,7.00
2023-04-21T06:21:05.020Z,9.00
2023-04-21T06:26:07.794Z,9.25
2023-04-21T06:31:15.150Z,7.00
2023-04-21T06:36:18.114Z,9.00
2023-04-21T06:41:20.145Z,16.50
2023-04-21T06:46:22.107Z,11.00
2023-04-21T06:51:24.031Z,11.25
2023-04-21T06:56:29.379Z,13.50
2023-04-21T07:01:31.314Z,13.75
2023-04-21T07:06:33.454Z,7.25
2023-04-21T07:11:35.661Z,7.50
2023-04-21T07:16:37.485Z,13.25
2023-04-21T07:21:39.314Z,9.50
2023-04-21T07:26:41.146Z,16.00
2023-04-21T07:31:43.067Z,21.25
2023-04-21T07:36:44.878Z,24.00
2023-04-21T07:41:46.806Z,25.25
2023-04-21T07:46:48.664Z,23.25
2023-04-21T07:51:50.514Z,20.50
2023-04-21T07:56:52.378Z,16.00
2023-04-21T08:01:54.326Z,22.00
2023-04-21T08:06:56.267Z,23.25
2023-04-21T08:11:58.572Z,18.75
2023-04-21T08:17:00.624Z,12.75
2023-04-21T08:22:02.850Z,12.25
2023-04-21T08:27:04.761Z,7.00
2023-04-21T08:32:06.773Z,9.75
2023-04-21T08:37:08.662Z,22.50
2023-04-21T08:42:10.727Z,19.25
2023-04-21T08:47:14.164Z,9.75
2023-04-21T08:52:16.731Z,3.75
2023-04-21T08:57:19.412Z,3.25
2023-04-21T09:02:22.351Z,4.00
2023-04-21T09:07:36.253Z,41.25
2023-04-21T09:12:40.916Z,27.75
2023-04-21T09:17:46.097Z,37.00
2023-04-21T09:22:51.603Z,32.00
2023-04-21T09:27:54.128Z,33.00
2023-04-21T09:32:58.062Z,11.25
2023-04-21T09:38:03.543Z,14.00
2023-04-21T09:43:05.898Z,43.75
2023-04-21T09:48:10.099Z,14.00
2023-04-21T09:53:17.148Z,28.00
2023-04-21T09:58:24.601Z,35.25
2023-04-21T10:03:28.865Z,9.00
2023-04-21T10:08:31.936Z,9.75
2023-04-21T10:13:34.619Z,17.00
2023-04-21T10:18:44.022Z,12.50
2023-04-21T10:23:47.152Z,18.50
2023-04-21T10:28:59.594Z,14.00
2023-04-21T10:34:13.254Z,10.75
2023-04-21T10:39:29.028Z,9.25
2023-04-21T10:44:30.858Z,6.67
2023-04-21T10:49:39.258Z,5.00
2023-04-21T10:55:12.411Z,6.25
2023-04-21T11:00:20.261Z,15.75
2023-04-21T11:05:28.518Z,14.00
2023-04-21T11:10:30.457Z,14.00
2023-04-21T11:15:32.445Z,12.25
2023-04-21T11:20:34.514Z,19.25
2023-04-21T11:25:36.566Z,6.25
2023-04-21T11:30:38.469Z,13.75
2023-04-21T11:35:41.129Z,13.25
2023-04-21T11:40:49.962Z,14.00
2023-04-21T11:45:51.837Z,16.00
2023-04-21T11:50:53.718Z,11.25
2023-04-21T11:55:57.051Z,22.50
2023-04-21T12:00:59.133Z,24.25
2023-04-21T12:06:01.142Z,21.25
2023-04-21T12:11:03.132Z,26.75
2023-04-21T12:16:06.492Z,26.25
2023-04-21T12:21:08.427Z,27.75
2023-04-21T12:26:11.103Z,24.75
2023-04-21T12:31:13.463Z,28.50
2023-04-21T12:36:15.411Z,29.75
2023-04-21T12:41:17.285Z,26.75
2023-04-21T12:46:19.258Z,18.50
2023-04-21T12:51:21.236Z,29.50
2023-04-21T12:56:23.095Z,24.00
2023-04-21T13:01:25.441Z,24.25
2023-04-21T13:06:28.355Z,24.00
2023-04-21T13:11:30.286Z,25.25
2023-04-21T13:16:32.408Z,11.50
2023-04-21T13:21:34.415Z,29.25
2023-04-21T13:26:36.407Z,29.75
2023-04-21T13:31:38.406Z,25.00
2023-04-21T13:36:41.319Z,30.25
2023-04-21T13:41:43.172Z,27.25
2023-04-21T13:46:45.710Z,32.25
2023-04-21T13:51:47.649Z,25.00
2023-04-21T13:56:49.606Z,27.75
2023-04-21T14:01:51.634Z,29.00
2023-04-21T14:06:53.620Z,21.00
2023-04-21T14:11:55.897Z,25.00
2023-04-21T14:16:57.926Z,26.25
2023-04-21T14:21:59.800Z,30.50
2023-04-21T14:27:02.162Z,27.00
2023-04-21T14:32:04.229Z,28.50
2023-04-21T14:37:06.274Z,31.75
2023-04-21T14:42:08.131Z,24.75
2023-04-21T14:47:11.110Z,24.75
2023-04-21T14:52:13.549Z,25.00
2023-04-21T14:57:19.756Z,20.25
2023-04-21T15:02:23.214Z,14.50
2023-04-21T15:07:25.317Z,30.00
2023-04-21T15:12:27.418Z,22.50
2023-04-21T15:17:29.541Z,20.00
2023-04-21T15:22:31.472Z,20.50
2023-04-21T15:27:33.520Z,22.50
2023-04-21T15:32:35.416Z,26.00
2023-04-21T15:37:37.368Z,26.00
2023-04-21T15:42:39.860Z,24.50
2023-04-21T15:47:41.929Z,19.25
2023-04-21T15:52:44.409Z,23.50
2023-04-21T15:57:46.365Z,25.75
2023-04-21T16:02:48.630Z,24.00
2023-04-21T16:07:50.694Z,25.75
2023-04-21T16:12:52.629Z,23.50
2023-04-21T16:17:54.607Z,24.25
2023-04-21T16:22:56.622Z,26.25
2023-04-21T16:27:58.483Z,22.50
2023-04-21T16:33:00.394Z,24.00
2023-04-21T16:38:02.302Z,28.50
2023-04-21T16:43:04.143Z,27.50
2023-04-21T16:48:06.271Z,30.75
2023-04-21T16:53:08.813Z,22.25
2023-04-21T16:58:10.789Z,27.00
2023-04-21T17:03:12.721Z,26.25
2023-04-21T17:08:14.724Z,27.25
2023-04-21T17:13:16.549Z,25.75
2023-04-21T17:18:18.689Z,22.00
2023-04-21T17:23:20.716Z,24.50
2023-04-21T17:28:22.852Z,27.50
2023-04-21T17:33:24.747Z,28.75
2023-04-21T17:38:26.737Z,24.25
2023-04-21T17:43:28.680Z,22.50
2023-04-21T17:48:30.536Z,21.00
2023-04-21T17:53:32.460Z,17.67
2023-04-21T17:58:35.534Z,10.00
2023-04-21T18:03:37.521Z,9.00
2023-04-21T18:08:39.554Z,6.33
2023-04-21T18:13:41.499Z,16.00
2023-04-21T18:18:43.474Z,11.00
2023-04-21T18:23:45.523Z,15.33
2023-04-21T18:28:47.410Z,30.00
2023-04-21T18:33:49.309Z,34.25
2023-04-21T18:38:51.385Z,26.50
2023-04-21T18:43:53.427Z,22.00
2023-04-21T18:48:55.460Z,13.33
2023-04-21T18:53:57.482Z,9.67
2023-04-21T18:58:59.850Z,12.33
2023-04-21T19:04:01.971Z,9.00
2023-04-21T19:09:04.771Z,10.00
2023-04-21T19:14:06.662Z,17.50
2023-04-21T19:19:08.693Z,24.50
2023-04-21T19:24:10.612Z,27.25
2023-04-21T19:29:14.941Z,29.25
2023-04-21T19:34:17.118Z,30.75
2023-04-21T19:39:19.199Z,31.25
2023-04-21T19:44:21.071Z,23.75
2023-04-21T19:49:23.454Z,24.50
2023-04-21T19:54:25.365Z,31.50
2023-04-21T19:59:27.264Z,30.00
2023-04-21T20:04:29.177Z,29.00
2023-04-21T20:09:31.183Z,51.75
2023-04-21T20:14:33.093Z,22.25
2023-04-21T20:19:35.877Z,29.75
2023-04-21T20:24:37.915Z,51.25
2023-04-21T20:29:39.986Z,28.00
2023-04-21T20:34:42.234Z,33.25
2023-04-21T20:39:46.909Z,33.75
2023-04-21T20:44:48.712Z,26.00
2023-04-21T20:49:50.860Z,30.75
2023-04-21T20:54:52.690Z,37.25
2023-04-21T20:59:54.760Z,33.50
2023-04-21T21:04:56.633Z,42.50
2023-04-21T21:09:58.423Z,40.75
2023-04-21T21:15:00.219Z,22.50
2023-04-21T21:20:02.117Z,25.75
2023-04-21T21:25:04.294Z,30.00
2023-04-21T21:30:06.936Z,29.00
2023-04-21T21:35:10.318Z,26.00
2023-04-21T21:40:12.756Z,30.25
2023-04-21T21:45:14.661Z,39.00
2023-04-21T21:50:16.677Z,30.25
2023-04-21T21:55:18.540Z,30.00
2023-04-21T22:00:20.653Z,34.50
2023-04-21T22:05:22.723Z,25.50
2023-04-21T22:10:24.792Z,28.50
2023-04-21T22:15:26.583Z,15.50
2023-04-21T22:20:28.476Z,12.00
2023-04-21T22:25:30.735Z,5.00
2023-04-21T22:30:32.565Z,5.50
2023-04-21T22:35:34.377Z,32.00
2023-04-21T22:40:36.610Z,26.25
2023-04-21T22:45:38.618Z,8.50
2023-04-21T22:50:44.074Z,9.00
2023-04-21T22:55:45.909Z,7.00
2023-04-21T23:00:47.897Z,5.25
2023-04-21T23:05:49.778Z,3.00
2023-04-21T23:10:51.765Z,7.25
2023-04-21T23:15:53.611Z,3.00
2023-04-21T23:20:55.615Z,7.00
2023-04-21T23:25:57.484Z,7.00
2023-04-21T23:30:59.354Z,7.75
2023-04-21T23:36:01.192Z,7.00
2023-04-21T23:41:03.100Z,10.25
2023-04-21T23:46:04.950Z,3.00
2023-04-21T23:51:07.745Z,4.50
2023-04-21T23:56:09.617Z,3.00
